Time;durP1;ratioP1;P1;durP2;ratioP2;P2;SDS_P1;SDS_P2;PMS_P1;PMS_P2;Temp;Humidity;BMP_temperature;BMP_pressure;BME280_temperature;BME280_humidity;BME280_pressure;Samples;Min_cycle;Max_cycle;Signal;HPM_P1;HPM_P2
2021/11/11 00:00:20;;;;;;;9.60;6.27;;;3.50;99.90;;;;;;5059607;28;20177;-96
2021/11/11 00:02:46;;;;;;;9.83;6.07;;;3.50;99.90;;;;;;5058732;28;20185;-96
2021/11/11 00:05:12;;;;;;;9.40;6.27;;;3.50;99.90;;;;;;5059392;28;20185;-96
2021/11/11 00:07:39;;;;;;;9.13;5.73;;;3.50;99.90;;;;;;5058540;28;20189;-96
2021/11/11 00:10:09;;;;;;;11.33;6.43;;;3.50;99.90;;;;;;5058573;28;20177;-96
2021/11/11 00:12:36;;;;;;;8.77;6.03;;;3.50;99.90;;;;;;5059970;28;20215;-96
2021/11/11 00:15:06;;;;;;;8.43;6.07;;;3.50;99.90;;;;;;5062071;28;20189;-96
2021/11/11 00:17:32;;;;;;;11.17;6.67;;;3.50;99.90;;;;;;5062636;28;20195;-96
2021/11/11 00:19:57;;;;;;;15.53;7.27;;;3.40;99.90;;;;;;5063195;28;20272;-96
2021/11/11 00:22:24;;;;;;;10.63;6.23;;;3.40;99.90;;;;;;5061879;28;20677;-95
2021/11/11 00:24:50;;;;;;;7.60;5.83;;;3.40;99.90;;;;;;5062206;28;20189;-96
2021/11/11 00:27:23;;;;;;;8.97;5.90;;;3.40;99.90;;;;;;5063638;28;20193;-96
2021/11/11 00:29:49;;;;;;;9.97;6.10;;;3.40;99.90;;;;;;5062591;28;20182;-96
2021/11/11 00:32:15;;;;;;;9.60;6.17;;;3.40;99.90;;;;;;5061733;28;20217;-94
2021/11/11 00:37:24;;;;;;;9.87;6.43;;;3.50;99.90;;;;;;5418158;22;20225;-95
2021/11/11 00:39:51;;;;;;;8.33;6.17;;;3.40;99.90;;;;;;5099377;28;20181;-96
2021/11/11 00:42:18;;;;;;;11.33;7.03;;;3.40;99.90;;;;;;5068656;28;20197;-96
2021/11/11 00:44:51;;;;;;;12.33;6.83;;;3.40;99.90;;;;;;5064017;28;20185;-96
2021/11/11 00:47:18;;;;;;;10.27;7.07;;;3.40;99.90;;;;;;5082470;28;20200;-95
2021/11/11 00:49:48;;;;;;;9.87;6.70;;;3.40;99.90;;;;;;5065869;28;20181;-95
2021/11/11 00:52:16;;;;;;;12.07;6.93;;;3.30;99.90;;;;;;5061102;28;20213;-95
2021/11/11 00:54:43;;;;;;;8.77;6.13;;;3.30;99.90;;;;;;5060936;28;20224;-95
2021/11/11 00:57:12;;;;;;;9.77;6.30;;;3.30;99.90;;;;;;5059129;28;20200;-96
2021/11/11 00:59:42;;;;;;;7.87;6.23;;;3.40;99.90;;;;;;5061975;28;20212;-94
2021/11/11 01:02:09;;;;;;;11.13;6.70;;;3.30;99.90;;;;;;5062518;28;20604;-95
2021/11/11 01:04:38;;;;;;;9.57;6.87;;;3.20;99.90;;;;;;5062020;28;20197;-95
2021/11/11 01:07:09;;;;;;;9.00;6.20;;;3.30;99.90;;;;;;5062087;28;20245;-95
2021/11/11 01:09:37;;;;;;;11.07;6.57;;;3.30;99.90;;;;;;5062786;28;20316;-96
2021/11/11 01:12:04;;;;;;;9.73;6.47;;;3.30;99.90;;;;;;5062955;28;20224;-95
2021/11/11 01:14:29;;;;;;;8.27;6.47;;;3.30;99.90;;;;;;5063057;28;20181;-95
2021/11/11 01:16:56;;;;;;;9.40;5.97;;;3.20;99.90;;;;;;5063544;28;20189;-95
2021/11/11 01:19:32;;;;;;;11.63;7.40;;;3.20;99.90;;;;;;5047130;28;20189;-96
2021/11/11 01:22:00;;;;;;;8.17;6.43;;;3.20;99.90;;;;;;5063616;28;20195;-96
2021/11/11 01:24:26;;;;;;;9.97;6.17;;;3.10;99.90;;;;;;5062660;28;20221;-95
2021/11/11 01:26:53;;;;;;;9.70;6.97;;;3.10;99.90;;;;;;5063625;28;20189;-95
2021/11/11 01:29:33;;;;;;;9.00;7.00;;;3.20;99.90;;;;;;5063712;28;20225;-96
2021/11/11 01:32:03;;;;;;;10.00;6.43;;;3.20;99.90;;;;;;5063438;28;20217;-95
2021/11/11 01:34:28;;;;;;;10.37;6.90;;;3.20;99.90;;;;;;5063375;28;20219;-95
2021/11/11 01:36:56;;;;;;;7.53;6.30;;;3.20;99.90;;;;;;5062441;28;20237;-96
2021/11/11 01:39:39;;;;;;;12.23;7.43;;;3.20;99.90;;;;;;5063497;28;20196;-95
2021/11/11 01:42:05;;;;;;;10.53;6.37;;;3.20;99.90;;;;;;5063181;28;20236;-96
2021/11/11 01:44:31;;;;;;;10.20;6.70;;;3.20;99.90;;;;;;5063472;28;20196;-96
2021/11/11 01:46:57;;;;;;;9.50;6.63;;;3.20;99.90;;;;;;5063850;28;20204;-96
2021/11/11 01:49:26;;;;;;;9.30;6.67;;;3.20;99.90;;;;;;5064824;28;20558;-95
2021/11/11 01:51:52;;;;;;;12.63;7.80;;;3.20;99.90;;;;;;5063286;28;20245;-95
2021/11/11 01:54:18;;;;;;;10.67;6.73;;;3.20;99.90;;;;;;5049750;28;20624;-96
2021/11/11 01:56:45;;;;;;;9.43;6.97;;;3.20;99.90;;;;;;5043954;28;20181;-96
2021/11/11 01:59:11;;;;;;;12.63;7.27;;;3.20;99.90;;;;;;5043319;28;20189;-96
2021/11/11 02:01:38;;;;;;;10.87;6.03;;;3.20;99.90;;;;;;5042761;28;20189;-96
2021/11/11 02:04:04;;;;;;;12.20;7.23;;;3.20;99.90;;;;;;5043794;28;20186;-96
2021/11/11 02:06:30;;;;;;;9.97;6.10;;;3.30;99.90;;;;;;5044024;28;20190;-96
2021/11/11 02:09:00;;;;;;;10.07;7.20;;;3.20;99.90;;;;;;5043090;28;20193;-95
2021/11/11 02:11:26;;;;;;;9.10;6.83;;;3.30;99.90;;;;;;5043660;28;20214;-95
2021/11/11 02:13:53;;;;;;;11.33;7.23;;;3.30;99.90;;;;;;5043985;28;20197;-95
2021/11/11 02:16:20;;;;;;;11.53;7.53;;;3.30;99.90;;;;;;5043929;28;20188;-96
2021/11/11 02:18:46;;;;;;;12.00;7.43;;;3.30;99.90;;;;;;5043245;28;20197;-95
2021/11/11 02:21:13;;;;;;;10.20;6.90;;;3.40;99.90;;;;;;5043582;28;20178;-96
2021/11/11 02:23:40;;;;;;;15.60;7.70;;;3.40;99.90;;;;;;5035129;28;20631;-96
2021/11/11 02:26:06;;;;;;;11.63;7.70;;;3.40;99.90;;;;;;5063552;28;20189;-96
2021/11/11 02:29:20;;;;;;;10.27;7.77;;;3.40;99.90;;;;;;5063903;28;20192;-96
2021/11/11 02:31:47;;;;;;;11.57;6.43;;;3.40;99.90;;;;;;5063390;28;20269;-95
2021/11/11 02:34:13;;;;;;;12.67;7.70;;;3.40;99.90;;;;;;5047314;28;20193;-95
2021/11/11 02:37:01;;;;;;;12.30;6.97;;;3.50;99.90;;;;;;5062981;28;20221;-96
2021/11/11 02:39:32;;;;;;;12.00;7.13;;;3.50;99.90;;;;;;5063286;28;20180;-95
2021/11/11 02:42:00;;;;;;;10.63;7.40;;;3.50;99.90;;;;;;5046975;28;20213;-95
2021/11/11 02:44:28;;;;;;;10.27;7.23;;;3.60;99.90;;;;;;5062843;28;20185;-96
2021/11/11 02:46:58;;;;;;;10.33;7.53;;;3.60;99.90;;;;;;5062934;28;20189;-95
2021/11/11 02:49:33;;;;;;;14.83;7.80;;;3.60;99.90;;;;;;5062799;28;20185;-96
2021/11/11 02:51:59;;;;;;;10.63;7.63;;;3.60;99.90;;;;;;5062550;28;20650;-95
2021/11/11 02:54:25;;;;;;;9.87;7.00;;;3.60;99.90;;;;;;5062045;28;20185;-95
2021/11/11 02:56:53;;;;;;;10.27;7.20;;;3.70;99.90;;;;;;5062668;28;20216;-96
2021/11/11 02:59:37;;;;;;;10.77;7.13;;;3.70;99.90;;;;;;5062390;28;20185;-96
2021/11/11 03:02:03;;;;;;;10.73;7.40;;;3.70;99.90;;;;;;5062897;28;20185;-95
2021/11/11 03:04:29;;;;;;;12.23;7.20;;;3.60;99.90;;;;;;5062539;28;20212;-96
2021/11/11 03:06:55;;;;;;;11.40;7.37;;;3.60;99.90;;;;;;5062786;28;20208;-95
2021/11/11 03:09:29;;;;;;;11.67;7.60;;;3.70;99.90;;;;;;5065405;28;20189;-95
2021/11/11 03:11:58;;;;;;;11.73;7.43;;;3.60;99.90;;;;;;5062723;28;20303;-94
2021/11/11 03:14:28;;;;;;;11.27;7.13;;;3.70;99.90;;;;;;5067113;28;20177;-96
2021/11/11 03:16:58;;;;;;;11.87;7.70;;;3.70;99.90;;;;;;5084740;28;20173;-96
2021/11/11 03:19:35;;;;;;;13.17;7.37;;;3.70;99.90;;;;;;5082221;28;20195;-95
2021/11/11 03:22:18;;;;;;;10.30;7.67;;;3.70;99.90;;;;;;5072661;23;20237;-96
2021/11/11 03:24:59;;;;;;;12.93;7.00;;;3.70;99.90;;;;;;5084835;28;20209;-95
2021/11/11 03:27:25;;;;;;;11.27;6.60;;;3.80;99.90;;;;;;5067778;28;20192;-96
2021/11/11 03:29:56;;;;;;;11.33;6.77;;;3.80;99.90;;;;;;5064537;28;20263;-96
2021/11/11 03:32:32;;;;;;;10.33;6.90;;;3.80;99.90;;;;;;5058642;28;20217;-96
2021/11/11 03:34:57;;;;;;;10.33;7.10;;;3.80;99.90;;;;;;5057289;28;20250;-95
2021/11/11 03:37:26;;;;;;;10.30;7.47;;;3.80;99.90;;;;;;5058540;28;20189;-94
2021/11/11 03:39:54;;;;;;;11.77;7.10;;;3.80;99.90;;;;;;5041266;28;20185;-96
2021/11/11 03:42:26;;;;;;;9.77;6.67;;;3.80;99.90;;;;;;5058543;28;20184;-95
2021/11/11 03:44:53;;;;;;;8.90;6.90;;;3.80;99.90;;;;;;5058605;28;20291;-96
2021/11/11 03:47:22;;;;;;;9.77;6.70;;;3.80;99.90;;;;;;5041752;28;20193;-96
2021/11/11 03:50:06;;;;;;;11.07;7.10;;;3.80;99.90;;;;;;5045742;28;20189;-95
2021/11/11 03:52:32;;;;;;;11.30;6.73;;;3.90;99.90;;;;;;5043506;28;20213;-95
2021/11/11 03:55:03;;;;;;;10.13;5.73;;;3.90;99.90;;;;;;5043084;28;20304;-96
2021/11/11 03:57:29;;;;;;;13.67;6.83;;;3.90;99.90;;;;;;5061860;28;20228;-96
2021/11/11 03:59:56;;;;;;;13.93;6.63;;;3.90;99.90;;;;;;5043732;28;20280;-96
2021/11/11 04:02:23;;;;;;;9.50;6.43;;;3.90;99.90;;;;;;5044381;28;20193;-96
2021/11/11 04:04:50;;;;;;;12.77;6.90;;;3.90;99.90;;;;;;5043994;28;20258;-96
2021/11/11 04:07:15;;;;;;;13.23;7.20;;;3.90;99.90;;;;;;5044381;28;20190;-95
2021/11/11 04:09:43;;;;;;;11.27;6.90;;;3.90;99.90;;;;;;5044046;28;20196;-96
2021/11/11 04:12:09;;;;;;;10.47;6.50;;;3.90;99.90;;;;;;5044047;28;20217;-96
2021/11/11 04:14:36;;;;;;;11.77;7.10;;;3.90;99.90;;;;;;5043037;28;20197;-96
2021/11/11 04:17:03;;;;;;;11.20;6.70;;;3.90;99.90;;;;;;5041594;28;20193;-96
2021/11/11 04:19:39;;;;;;;11.47;6.80;;;3.90;99.90;;;;;;5041920;28;20645;-96
2021/11/11 04:22:05;;;;;;;10.00;6.90;;;3.90;99.90;;;;;;5042056;28;20233;-95
2021/11/11 04:24:33;;;;;;;11.90;7.10;;;3.90;99.90;;;;;;5061576;28;20186;-96
2021/11/11 04:27:03;;;;;;;9.93;6.63;;;3.90;99.90;;;;;;5062171;28;20529;-96
2021/11/11 04:29:46;;;;;;;9.07;6.00;;;3.80;99.90;;;;;;5062709;28;20181;-96
2021/11/11 04:32:15;;;;;;;11.53;6.97;;;3.90;99.90;;;;;;5062721;28;20535;-95
2021/11/11 04:34:47;;;;;;;11.47;6.70;;;3.80;99.90;;;;;;5062960;28;20189;-95
2021/11/11 04:37:27;;;;;;;13.40;7.17;;;3.80;99.90;;;;;;5062844;28;20257;-96
2021/11/11 05:03:38;;;;;;;10.60;6.70;;;3.90;99.90;;;;;;5082040;28;20254;-96
2021/11/11 05:06:05;;;;;;;12.93;7.40;;;3.80;99.90;;;;;;5063868;28;20189;-95
2021/11/11 05:08:31;;;;;;;10.30;7.50;;;3.90;99.90;;;;;;5063689;28;20192;-96
2021/11/11 05:11:01;;;;;;;11.60;8.00;;;3.90;99.90;;;;;;5064146;28;20256;-96
2021/11/11 05:13:28;;;;;;;12.10;7.40;;;3.90;99.90;;;;;;5063950;28;20693;-96
2021/11/11 05:15:54;;;;;;;11.10;7.30;;;3.90;99.90;;;;;;5063939;28;20189;-96
2021/11/11 05:18:20;;;;;;;12.63;7.60;;;3.90;99.90;;;;;;5063700;28;20247;-96
2021/11/11 05:20:46;;;;;;;15.33;8.27;;;3.90;99.90;;;;;;5063340;28;20280;-96
2021/11/11 05:23:12;;;;;;;16.63;9.37;;;3.90;99.90;;;;;;5064282;28;20185;-96
2021/11/11 05:25:46;;;;;;;12.00;8.20;;;3.90;99.90;;;;;;5082173;28;20176;-96
2021/11/11 05:28:12;;;;;;;13.57;8.10;;;3.90;99.90;;;;;;5064474;28;20181;-96
2021/11/11 05:30:40;;;;;;;13.63;8.63;;;3.90;99.90;;;;;;5063895;28;20193;-96
2021/11/11 05:33:06;;;;;;;11.43;7.97;;;3.90;99.90;;;;;;5063680;28;20233;-96
2021/11/11 05:35:36;;;;;;;12.53;8.03;;;4.00;99.90;;;;;;5066928;28;20189;-95
2021/11/11 05:38:08;;;;;;;12.53;8.03;;;4.00;99.90;;;;;;5065351;28;20197;-96
2021/11/11 05:40:50;;;;;;;14.50;8.30;;;4.00;99.90;;;;;;5073454;28;20178;-96
2021/11/11 05:43:16;;;;;;;13.50;8.07;;;4.10;99.90;;;;;;5089400;28;20209;-96
2021/11/11 05:45:43;;;;;;;13.03;7.90;;;4.10;99.90;;;;;;5069291;28;20193;-96
2021/11/11 05:48:09;;;;;;;15.73;8.77;;;4.10;99.90;;;;;;5074528;28;20185;-96
2021/11/11 05:51:28;;;;;;;13.63;8.10;;;4.20;99.90;;;;;;5071849;28;20192;-96
2021/11/11 05:53:55;;;;;;;12.93;8.03;;;4.20;99.90;;;;;;5070004;28;20228;-96
2021/11/11 05:56:26;;;;;;;12.10;7.90;;;4.20;99.90;;;;;;5056149;28;20200;-95
2021/11/11 05:58:53;;;;;;;12.03;8.23;;;4.20;99.90;;;;;;5073345;28;20181;-96
2021/11/11 06:01:20;;;;;;;13.63;8.33;;;4.10;99.90;;;;;;5074118;28;20209;-96
2021/11/11 06:03:46;;;;;;;11.83;7.80;;;4.10;99.90;;;;;;5056845;28;20186;-96
2021/11/11 06:06:22;;;;;;;15.70;9.17;;;4.20;99.90;;;;;;5073262;28;20242;-96
2021/11/11 06:08:48;;;;;;;13.07;8.97;;;4.20;99.90;;;;;;5065593;28;20281;-96
2021/11/11 06:15:24;;;;;;;14.50;8.53;;;4.10;99.90;;;;;;5072191;28;20633;-96
2021/11/11 06:18:11;;;;;;;14.90;9.47;;;4.20;99.90;;;;;;5054873;28;20182;-96
2021/11/11 06:20:50;;;;;;;17.97;8.80;;;4.20;99.90;;;;;;5054747;28;20189;-96
2021/11/11 06:23:16;;;;;;;13.50;9.80;;;4.20;99.90;;;;;;5035673;28;20201;-96
2021/11/11 06:25:48;;;;;;;16.63;9.80;;;4.30;99.90;;;;;;5033762;28;20197;-96
2021/11/11 06:28:16;;;;;;;16.30;9.87;;;4.20;99.90;;;;;;5035384;28;20242;-96
2021/11/11 06:31:05;;;;;;;12.83;9.77;;;4.20;99.90;;;;;;5034665;28;20214;-96
2021/11/11 06:33:35;;;;;;;18.03;9.70;;;4.20;99.90;;;;;;5035127;28;20223;-96
2021/11/11 06:36:01;;;;;;;15.40;9.57;;;4.30;99.90;;;;;;5035211;28;20183;-96
2021/11/11 06:38:29;;;;;;;14.70;9.03;;;4.30;99.90;;;;;;5034729;28;20213;-95
2021/11/11 06:41:27;;;;;;;13.53;9.70;;;4.30;99.90;;;;;;5019253;28;20178;-95
2021/11/11 06:43:56;;;;;;;18.63;9.73;;;4.30;99.90;;;;;;5053106;28;20174;-95
2021/11/11 06:46:25;;;;;;;12.83;9.20;;;4.30;99.90;;;;;;5036097;28;20235;-96
2021/11/11 06:48:55;;;;;;;14.00;9.70;;;4.30;99.90;;;;;;5032603;28;20255;-96
2021/11/11 06:51:41;;;;;;;15.30;9.63;;;4.40;99.90;;;;;;5036130;28;20225;-95
2021/11/11 06:54:09;;;;;;;14.77;9.77;;;4.40;99.90;;;;;;5035583;28;20179;-96
2021/11/11 06:56:36;;;;;;;15.57;9.73;;;4.40;99.90;;;;;;5019157;28;20221;-96
2021/11/11 06:59:03;;;;;;;18.40;10.13;;;4.50;99.90;;;;;;5018689;28;20182;-95
2021/11/11 07:01:40;;;;;;;17.63;9.33;;;4.40;99.90;;;;;;5015315;28;20194;-96
2021/11/11 07:04:06;;;;;;;16.63;10.67;;;4.50;99.90;;;;;;5027144;28;20250;-95
2021/11/11 07:06:32;;;;;;;17.27;10.50;;;4.50;99.90;;;;;;5045126;28;20186;-96
2021/11/11 07:08:58;;;;;;;18.03;10.10;;;4.50;99.90;;;;;;5029550;28;20182;-96
2021/11/11 07:11:26;;;;;;;19.43;11.47;;;4.50;99.90;;;;;;5014559;28;20191;-96
2021/11/11 07:13:53;;;;;;;23.00;11.50;;;4.50;99.90;;;;;;5028729;28;20179;-95
2021/11/11 07:16:21;;;;;;;20.97;10.57;;;4.60;99.90;;;;;;5033276;28;20179;-96
2021/11/11 07:18:48;;;;;;;16.37;10.43;;;4.60;99.90;;;;;;5032544;28;20190;-96
2021/11/11 07:21:14;;;;;;;16.57;11.00;;;4.60;99.90;;;;;;5042595;28;20201;-96
2021/11/11 07:23:39;;;;;;;17.80;10.83;;;4.60;99.90;;;;;;5051101;28;20189;-96
2021/11/11 07:26:06;;;;;;;20.17;11.67;;;4.60;99.90;;;;;;5049694;28;20280;-96
2021/11/11 07:28:31;;;;;;;21.87;12.40;;;4.70;99.90;;;;;;5051574;28;20504;-96
2021/11/11 07:31:25;;;;;;;16.70;10.83;;;4.70;99.90;;;;;;5053807;28;20186;-96
2021/11/11 07:33:51;;;;;;;19.83;12.10;;;4.70;99.90;;;;;;5044415;28;20197;-96
2021/11/11 07:36:19;;;;;;;26.00;13.23;;;4.80;99.90;;;;;;5044270;28;20528;-96
2021/11/11 07:38:45;;;;;;;24.00;13.77;;;4.80;99.90;;;;;;5048786;28;20185;-96
2021/11/11 07:41:14;;;;;;;25.33;14.00;;;4.90;99.90;;;;;;5042506;28;20193;-95
2021/11/11 07:43:40;;;;;;;21.03;13.57;;;4.90;99.90;;;;;;5054998;28;20186;-96
2021/11/11 07:46:06;;;;;;;27.43;14.70;;;4.90;99.90;;;;;;5038092;28;20825;-94
2021/11/11 07:48:34;;;;;;;20.50;13.63;;;4.90;99.90;;;;;;5037833;28;20647;-94
2021/11/11 07:51:04;;;;;;;22.83;14.70;;;5.00;99.90;;;;;;5058183;28;20219;-95
2021/11/11 07:53:31;;;;;;;21.93;13.97;;;5.00;99.90;;;;;;5058940;28;20300;-94
2021/11/11 07:55:57;;;;;;;31.00;16.80;;;5.00;99.90;;;;;;5058357;28;20181;-94
2021/11/11 07:58:23;;;;;;;29.53;17.13;;;5.10;99.90;;;;;;5058374;28;20215;-94
2021/11/11 08:00:49;;;;;;;33.63;17.37;;;5.10;99.90;;;;;;5040955;28;20216;-94
2021/11/11 08:03:16;;;;;;;35.47;18.63;;;5.10;99.90;;;;;;5057792;28;20185;-94
2021/11/11 08:05:43;;;;;;;42.73;21.27;;;5.10;99.90;;;;;;5057992;28;20181;-93
2021/11/11 08:08:10;;;;;;;43.00;21.77;;;5.10;99.90;;;;;;5058999;28;20193;-93
2021/11/11 08:10:44;;;;;;;47.90;23.30;;;5.10;99.90;;;;;;5059060;28;20280;-94
2021/11/11 08:13:18;;;;;;;52.83;23.63;;;5.10;99.90;;;;;;5058754;28;20213;-94
2021/11/11 08:15:44;;;;;;;54.13;23.20;;;5.20;99.90;;;;;;5059427;28;20267;-94
2021/11/11 08:18:10;;;;;;;56.77;24.07;;;5.20;99.90;;;;;;5057728;28;20223;-94
2021/11/11 08:20:37;;;;;;;64.63;25.97;;;5.20;99.90;;;;;;5060695;28;20185;-94
2021/11/11 08:23:13;;;;;;;66.80;28.00;;;5.30;99.90;;;;;;5069341;28;20221;-93
2021/11/11 08:28:55;;;;;;;65.80;26.57;;;5.40;99.90;;;;;;5072921;28;20190;-93
2021/11/11 08:34:45;;;;;;;69.30;28.87;;;5.40;99.90;;;;;;5078134;28;20187;-93
2021/11/11 08:37:11;;;;;;;72.07;28.73;;;5.50;99.90;;;;;;5061738;28;20190;-94
2021/11/11 08:39:39;;;;;;;77.67;30.17;;;5.50;99.90;;;;;;5062212;28;20254;-94
2021/11/11 08:42:11;;;;;;;77.33;30.07;;;5.60;99.90;;;;;;5061192;28;20166;-93
2021/11/11 08:44:42;;;;;;;81.80;31.00;;;5.60;99.90;;;;;;5063126;28;20170;-93
2021/11/11 08:47:11;;;;;;;67.73;29.47;;;5.70;99.90;;;;;;5049814;28;20182;-92
2021/11/11 08:49:40;;;;;;;62.87;28.73;;;5.70;99.90;;;;;;5052132;28;20336;-94
2021/11/11 08:52:08;;;;;;;67.47;30.37;;;5.80;99.90;;;;;;5054230;28;20656;-93
2021/11/11 08:54:34;;;;;;;80.57;32.70;;;5.80;99.90;;;;;;5070498;28;20194;-94
2021/11/11 08:57:12;;;;;;;75.00;30.43;;;5.90;99.90;;;;;;5049396;28;20182;-94
2021/11/11 08:59:39;;;;;;;71.67;31.10;;;5.90;99.90;;;;;;5044104;28;20235;-94
2021/11/11 09:02:20;;;;;;;73.70;30.83;;;5.90;99.90;;;;;;5043619;28;20188;-94
2021/11/11 09:04:47;;;;;;;71.67;30.70;;;5.90;99.90;;;;;;5061026;28;20512;-94
2021/11/11 09:07:13;;;;;;;77.03;31.20;;;6.00;99.90;;;;;;5042523;28;20190;-93
2021/11/11 09:10:00;;;;;;;65.27;30.57;;;6.00;99.90;;;;;;5043523;28;20239;-94
2021/11/11 09:12:38;;;;;;;70.40;30.27;;;6.00;99.90;;;;;;5029532;28;20221;-94
2021/11/11 09:15:11;;;;;;;74.50;30.07;;;6.00;99.90;;;;;;5026236;28;20209;-94
2021/11/11 09:17:39;;;;;;;74.40;31.23;;;6.10;99.90;;;;;;5042465;28;20186;-95
2021/11/11 09:20:09;;;;;;;68.70;29.40;;;6.10;99.90;;;;;;5042816;28;20220;-94
2021/11/11 09:22:37;;;;;;;77.07;32.07;;;6.10;99.90;;;;;;5061712;28;20259;-95
2021/11/11 09:25:05;;;;;;;78.47;32.03;;;6.20;99.90;;;;;;5062827;28;20177;-94
2021/11/11 09:27:32;;;;;;;84.07;32.37;;;6.20;99.90;;;;;;5046799;28;20196;-94
2021/11/11 09:29:59;;;;;;;72.33;32.57;;;6.20;99.90;;;;;;5061514;28;20189;-94
2021/11/11 09:32:25;;;;;;;77.00;32.33;;;6.20;99.90;;;;;;5062593;28;20300;-94
2021/11/11 09:34:53;;;;;;;70.17;30.00;;;6.30;99.90;;;;;;5062092;28;20212;-96
2021/11/11 09:37:20;;;;;;;71.47;31.20;;;6.30;99.90;;;;;;5063006;28;20185;-94
2021/11/11 09:39:47;;;;;;;78.67;32.37;;;6.40;99.90;;;;;;5062331;28;20189;-94
2021/11/11 09:42:17;;;;;;;66.47;31.50;;;6.40;99.90;;;;;;5062817;28;20191;-94
2021/11/11 09:44:44;;;;;;;67.50;31.60;;;6.40;99.90;;;;;;5062960;28;20620;-94
2021/11/11 09:47:10;;;;;;;69.93;29.80;;;6.50;99.90;;;;;;5061882;28;20187;-95
2021/11/11 09:49:37;;;;;;;52.97;27.47;;;6.50;99.90;;;;;;5062299;28;20215;-95
2021/11/11 09:52:04;;;;;;;57.63;28.53;;;6.60;99.90;;;;;;5062951;28;20209;-94
2021/11/11 09:59:41;;;;;;;54.60;26.43;;;6.90;99.90;;;;;;5065505;28;20247;-93
2021/11/11 10:02:09;;;;;;;45.90;24.50;;;6.90;99.90;;;;;;5062911;28;20185;-94
2021/11/11 10:04:38;;;;;;;37.60;21.97;;;7.00;99.90;;;;;;5062201;28;20185;-94
2021/11/11 10:07:05;;;;;;;36.57;21.53;;;7.10;99.90;;;;;;5080746;28;20305;-94
2021/11/11 10:09:31;;;;;;;31.97;19.77;;;7.20;99.90;;;;;;5062668;28;20615;-94
2021/11/11 10:12:06;;;;;;;34.23;18.23;;;7.20;99.90;;;;;;5061564;28;20213;-94
2021/11/11 10:14:37;;;;;;;27.90;18.30;;;7.20;99.90;;;;;;5061773;28;20185;-94
2021/11/11 10:17:05;;;;;;;33.90;17.60;;;7.30;99.90;;;;;;5062318;28;20184;-93
2021/11/11 10:19:35;;;;;;;25.97;17.30;;;7.30;99.90;;;;;;5061444;28;20198;-94
2021/11/11 10:22:04;;;;;;;29.37;15.57;;;7.40;99.90;;;;;;5060650;28;20247;-93
2021/11/11 10:24:47;;;;;;;24.10;15.10;;;7.50;99.90;;;;;;5061998;28;20559;-94
2021/11/11 10:27:39;;;;;;;22.50;14.10;;;7.60;99.90;;;;;;5062002;28;20191;-94
2021/11/11 10:30:34;;;;;;;19.20;13.40;;;7.70;99.90;;;;;;5061855;28;20177;-94
2021/11/11 10:33:14;;;;;;;22.23;13.37;;;7.70;99.90;;;;;;5049294;28;20220;-94
2021/11/11 10:35:46;;;;;;;21.67;13.23;;;7.80;99.90;;;;;;5061471;28;20174;-93
2021/11/11 10:38:23;;;;;;;17.30;12.20;;;7.90;99.90;;;;;;5061374;28;20220;-94
2021/11/11 10:40:57;;;;;;;19.77;12.27;;;7.90;99.90;;;;;;5062223;28;20196;-93
2021/11/11 10:43:35;;;;;;;18.33;12.90;;;8.00;99.90;;;;;;5061827;28;20205;-93
2021/11/11 10:46:01;;;;;;;17.57;11.07;;;8.10;99.90;;;;;;5044851;28;20638;-93
2021/11/11 10:48:27;;;;;;;16.53;11.47;;;8.10;99.90;;;;;;5062170;28;20268;-95
2021/11/11 10:50:56;;;;;;;16.83;11.67;;;8.20;99.90;;;;;;5061192;28;20196;-94
2021/11/11 10:53:33;;;;;;;17.73;11.37;;;8.20;99.90;;;;;;5061976;28;20259;-93
2021/11/11 10:56:01;;;;;;;15.17;10.83;;;8.30;99.90;;;;;;5061180;28;20184;-96
2021/11/11 10:58:36;;;;;;;16.33;10.43;;;8.40;99.90;;;;;;5061522;28;20634;-93
2021/11/11 11:01:09;;;;;;;16.67;10.47;;;8.40;99.90;;;;;;5044721;28;20219;-93
2021/11/11 11:03:43;;;;;;;16.97;11.23;;;8.40;99.90;;;;;;5062146;28;20607;-93
2021/11/11 11:06:12;;;;;;;14.03;10.40;;;8.40;99.90;;;;;;5062959;28;20191;-93
2021/11/11 11:08:57;;;;;;;17.93;11.13;;;8.50;99.90;;;;;;5080791;28;20306;-94
2021/11/11 11:11:29;;;;;;;14.17;9.90;;;8.50;99.90;;;;;;5060189;28;20208;-93
2021/11/11 11:14:18;;;;;;;15.00;9.50;;;8.50;99.90;;;;;;5061009;28;20231;-94
2021/11/11 11:16:45;;;;;;;15.07;10.40;;;8.60;99.90;;;;;;5049383;28;20181;-93
2021/11/11 11:19:13;;;;;;;15.90;9.80;;;8.60;99.90;;;;;;5062718;28;20276;-93
2021/11/11 11:21:50;;;;;;;16.17;9.83;;;8.60;99.90;;;;;;5032083;28;20759;-93
2021/11/11 11:24:24;;;;;;;16.17;10.03;;;8.60;99.90;;;;;;5039896;28;20196;-93
2021/11/11 11:26:53;;;;;;;17.00;10.03;;;8.60;99.90;;;;;;5039427;28;20643;-94
2021/11/11 11:32:23;;;;;;;18.77;10.23;;;8.60;99.90;;;;;;5057122;28;20206;-93
2021/11/11 11:34:55;;;;;;;14.93;8.97;;;8.70;99.90;;;;;;5037844;28;20177;-94
2021/11/11 11:37:26;;;;;;;14.27;9.13;;;8.70;99.90;;;;;;5038152;28;20216;-94
2021/11/11 11:40:02;;;;;;;14.23;9.60;;;8.70;99.90;;;;;;5038402;28;20185;-94
2021/11/11 11:42:40;;;;;;;13.67;9.43;;;8.70;99.90;;;;;;5024637;28;20197;-93
2021/11/11 11:45:18;;;;;;;13.93;10.00;;;8.80;99.90;;;;;;5039466;28;20178;-93
2021/11/11 11:47:55;;;;;;;14.13;9.83;;;8.80;99.90;;;;;;5039679;28;20182;-93
2021/11/11 11:50:32;;;;;;;13.20;9.33;;;8.90;99.90;;;;;;5027577;28;20207;-93
2021/11/11 11:53:03;;;;;;;14.90;9.63;;;8.80;99.90;;;;;;5058702;28;20216;-93
2021/11/11 11:55:40;;;;;;;12.27;9.00;;;8.80;99.90;;;;;;5059494;28;20646;-93
2021/11/11 12:06:43;;;;;;;14.50;9.17;;;8.90;99.90;;;;;;5077885;28;20180;-94
2021/11/11 12:17:53;;;;;;;12.57;8.63;;;8.90;99.90;;;;;;5080088;28;20162;-94
2021/11/11 12:29:43;;;;;;;12.13;7.57;;;9.10;99.90;;;;;;5060803;28;20185;-95
2021/11/11 12:40:31;;;;;;;9.80;7.90;;;9.20;99.90;;;;;;5060966;28;20232;-93
2021/11/11 12:43:20;;;;;;;13.83;9.60;;;9.20;99.90;;;;;;5043944;28;20193;-93
2021/11/11 12:46:06;;;;;;;14.80;8.50;;;9.20;99.90;;;;;;5044854;28;20296;-93
2021/11/11 12:48:31;;;;;;;11.50;6.87;;;9.20;99.90;;;;;;5041528;28;20206;-95
2021/11/11 12:50:58;;;;;;;9.53;7.33;;;9.20;99.90;;;;;;5041873;28;20230;-96
2021/11/11 12:53:41;;;;;;;11.60;7.60;;;9.20;99.90;;;;;;5042548;28;20295;-95
2021/11/11 12:56:13;;;;;;;14.23;8.37;;;9.20;99.90;;;;;;5041136;28;20193;-96
2021/11/11 12:58:42;;;;;;;12.15;7.68;;;9.30;99.90;;;;;;5041160;28;20216;-96
2021/11/11 13:01:17;;;;;;;9.18;7.55;;;9.30;99.90;;;;;;5041433;28;20672;-96
2021/11/11 13:04:05;;;;;;;8.50;6.83;;;9.40;99.90;;;;;;5041327;28;20195;-96
2021/11/11 13:06:58;;;;;;;10.93;7.07;;;9.40;99.90;;;;;;5041199;28;20215;-96
2021/11/11 13:09:32;;;;;;;9.77;7.03;;;9.40;99.90;;;;;;5041447;28;20188;-96
2021/11/11 13:12:06;;;;;;;9.77;7.30;;;9.40;99.90;;;;;;5045323;28;20267;-95
2021/11/11 13:14:50;;;;;;;8.97;7.00;;;9.40;99.90;;;;;;5043630;28;20189;-96
2021/11/11 13:17:18;;;;;;;9.13;6.30;;;9.40;99.90;;;;;;5041921;28;20523;-96
2021/11/11 13:19:56;;;;;;;7.00;6.20;;;9.40;99.90;;;;;;5041500;28;20186;-95
2021/11/11 13:22:51;;;;;;;7.78;6.13;;;9.40;99.90;;;;;;5040935;28;20232;-95
2021/11/11 13:26:18;;;;;;;7.73;6.20;;;9.40;99.90;;;;;;5041478;28;20217;-96
2021/11/11 16:22:29;;;;;;;5.60;5.00;;;8.20;99.90;;;;;;5063885;28;20228;-95
2021/11/11 16:25:10;;;;;;;8.97;4.80;;;8.20;99.90;;;;;;5054084;28;20185;-96
2021/11/11 16:27:43;;;;;;;9.83;4.83;;;8.20;99.90;;;;;;5081331;28;20161;-96
2021/11/11 16:30:13;;;;;;;7.83;4.63;;;8.20;99.90;;;;;;5066565;28;20663;-96
2021/11/11 16:32:47;;;;;;;11.70;4.73;;;8.20;99.90;;;;;;5067249;28;20221;-96
2021/11/11 16:35:15;;;;;;;8.83;5.33;;;8.20;99.90;;;;;;5064084;28;20187;-95
2021/11/11 16:37:44;;;;;;;8.50;5.17;;;8.20;99.90;;;;;;5061254;28;20271;-95
2021/11/11 16:40:14;;;;;;;7.63;5.37;;;8.20;99.90;;;;;;5060664;28;20200;-96
2021/11/11 16:42:40;;;;;;;8.67;5.27;;;8.20;99.90;;;;;;5060794;28;20185;-96
2021/11/11 16:45:06;;;;;;;7.53;5.27;;;8.20;99.90;;;;;;5061276;28;20292;-95
2021/11/11 16:47:37;;;;;;;8.20;4.97;;;8.20;99.90;;;;;;5060955;28;20188;-95
2021/11/11 16:50:03;;;;;;;8.70;5.00;;;8.10;99.90;;;;;;5060442;28;20196;-95
2021/11/11 16:52:31;;;;;;;8.57;5.10;;;8.10;99.90;;;;;;5061474;28;20350;-94
2021/11/11 16:54:57;;;;;;;5.83;4.73;;;8.10;99.90;;;;;;5060555;28;20194;-95
2021/11/11 16:57:24;;;;;;;5.87;4.77;;;8.10;99.90;;;;;;5060545;28;20189;-95
2021/11/11 16:59:50;;;;;;;6.83;4.80;;;8.10;99.90;;;;;;5047840;28;20190;-94
2021/11/11 17:02:16;;;;;;;7.17;5.10;;;8.10;99.90;;;;;;5046680;28;20187;-94
2021/11/11 17:04:42;;;;;;;9.23;5.17;;;8.10;99.90;;;;;;5060526;28;20608;-93
2021/11/11 17:07:07;;;;;;;6.70;5.33;;;8.10;99.90;;;;;;5059428;28;20235;-93
2021/11/11 17:09:35;;;;;;;7.80;5.70;;;8.10;99.90;;;;;;5060287;28;20537;-94
2021/11/11 17:12:01;;;;;;;5.87;5.10;;;8.00;99.90;;;;;;5061423;28;20209;-94
2021/11/11 17:14:28;;;;;;;9.10;5.47;;;8.00;99.90;;;;;;5061133;28;20200;-93
2021/11/11 17:16:55;;;;;;;11.03;5.40;;;8.00;99.90;;;;;;5061169;28;20620;-93